Time;durP1;ratioP1;P1;durP2;ratioP2;P2;SDS_P1;SDS_P2;PMS_P1;PMS_P2;Temp;Humidity;BMP_temperature;BMP_pressure;BME280_temperature;BME280_humidity;BME280_pressure;Samples;Min_cycle;Max_cycle;Signal;HPM_P1;HPM_P2
2020/12/18 00:01:55;;;;;;;42.17;10.30;;;;;;;0.66;100.00;97281.94;4966131;28;20082;-59
2020/12/18 00:04:23;;;;;;;59.22;11.73;;;;;;;0.67;100.00;97273.25;5006533;28;20049;-58
2020/12/18 00:06:49;;;;;;;107.82;12.77;;;;;;;0.54;100.00;97280.69;4969028;28;20054;-58
2020/12/18 00:09:16;;;;;;;147.52;12.20;;;;;;;0.35;100.00;97278.00;5007638;28;20078;-58
2020/12/18 00:11:44;;;;;;;70.03;10.70;;;;;;;0.34;100.00;97283.25;4975003;28;20504;-58
2020/12/18 00:14:11;;;;;;;60.15;11.43;;;;;;;0.41;100.00;97287.28;5005080;28;20046;-56
2020/12/18 00:16:38;;;;;;;112.68;11.70;;;;;;;0.40;100.00;97296.81;4969612;28;20038;-58
2020/12/18 00:19:06;;;;;;;34.05;9.43;;;;;;;0.52;100.00;97287.69;5004753;28;20054;-60
2020/12/18 00:21:33;;;;;;;50.42;10.88;;;;;;;0.52;100.00;97295.50;4969278;28;20462;-59
2020/12/18 00:23:59;;;;;;;51.83;10.90;;;;;;;0.59;100.00;97294.34;5005401;28;20088;-59
2020/12/18 00:26:34;;;;;;;87.47;11.77;;;;;;;0.65;100.00;97283.69;5003504;28;20042;-54
2020/12/18 00:29:01;;;;;;;56.88;9.88;;;;;;;0.60;100.00;97290.81;4968611;28;20056;-58
2020/12/18 00:31:30;;;;;;;38.97;9.90;;;;;;;0.67;100.00;97291.41;4998179;28;20405;-56
2020/12/18 00:33:57;;;;;;;49.95;10.48;;;;;;;0.67;100.00;97296.59;4969196;28;20092;-56
2020/12/18 00:36:25;;;;;;;39.97;9.63;;;;;;;0.76;100.00;97304.03;4997667;28;20416;-57
2020/12/18 00:38:52;;;;;;;31.70;9.35;;;;;;;0.77;100.00;97307.44;4976617;28;20144;-53
2020/12/18 00:41:18;;;;;;;66.57;11.60;;;;;;;0.60;100.00;97316.78;5008395;28;20061;-59
2020/12/18 00:43:46;;;;;;;44.63;10.32;;;;;;;0.63;100.00;97303.66;4968643;28;20535;-56
2020/12/18 00:46:13;;;;;;;33.22;9.02;;;;;;;0.57;100.00;97313.47;5008695;28;20042;-57
2020/12/18 00:48:40;;;;;;;39.65;8.85;;;;;;;0.70;100.00;97315.50;4965350;28;20096;-57
2020/12/18 00:51:10;;;;;;;59.33;10.40;;;;;;;0.70;100.00;97309.47;5009253;28;20104;-54
2020/12/18 00:53:37;;;;;;;46.38;10.48;;;;;;;0.56;100.00;97309.19;4970972;28;20511;-56
2020/12/18 00:56:07;;;;;;;37.90;11.20;;;;;;;0.73;100.00;97311.94;4998083;28;20081;-56
2020/12/18 00:58:36;;;;;;;54.85;11.30;;;;;;;0.82;100.00;97303.75;4968898;28;20046;-59
2020/12/18 01:01:04;;;;;;;66.22;11.40;;;;;;;0.68;100.00;97300.88;4987818;28;20042;-58
2020/12/18 01:03:31;;;;;;;69.05;11.35;;;;;;;0.66;100.00;97290.56;4969145;28;20045;-57
2020/12/18 01:05:58;;;;;;;37.08;9.90;;;;;;;0.50;100.00;97291.25;5008520;28;20065;-56
2020/12/18 01:08:25;;;;;;;33.72;8.93;;;;;;;0.49;100.00;97282.63;4966276;28;20042;-56
2020/12/18 01:10:53;;;;;;;25.92;8.07;;;;;;;0.27;100.00;97280.03;5008787;28;20077;-58
2020/12/18 01:13:20;;;;;;;70.47;11.02;;;;;;;0.22;100.00;97275.06;5005233;28;20093;-59
2020/12/18 01:15:47;;;;;;;36.10;9.02;;;;;;;0.17;100.00;97284.78;4967798;28;20048;-57
2020/12/18 01:18:26;;;;;;;60.63;10.70;;;;;;;0.18;100.00;97276.09;5008729;28;20460;-60
2020/12/18 01:20:53;;;;;;;;;;;;;;;0.28;100.00;97279.16;4969041;28;20045;-58
2020/12/18 01:23:21;;;;;;;43.40;9.60;;;;;;;0.15;100.00;97283.97;5008291;28;20499;-55
2020/12/18 01:25:55;;;;;;;60.63;10.70;;;;;;;0.01;100.00;97277.66;4960778;28;20053;-58
2020/12/18 01:28:22;;;;;;;43.53;9.93;;;;;;;-0.06;100.00;97283.06;5004234;28;20111;-59
2020/12/18 01:30:49;;;;;;;50.40;9.95;;;;;;;0.04;100.00;97282.72;4961656;28;20394;-55
2020/12/18 01:33:16;;;;;;;40.15;9.48;;;;;;;0.21;100.00;97291.53;5006364;28;20046;-57
2020/12/18 01:35:43;;;;;;;40.67;10.70;;;;;;;0.17;100.00;97300.34;4966630;28;20445;-55
2020/12/18 01:38:10;;;;;;;47.45;10.98;;;;;;;0.17;100.00;97295.16;5007137;28;20489;-55
2020/12/18 01:40:40;;;;;;;34.33;9.77;;;;;;;0.13;100.00;97283.19;4949092;28;20042;-59
2020/12/18 01:43:12;;;;;;;56.72;10.90;;;;;;;0.11;100.00;97302.31;5013579;28;20281;-56
2020/12/18 01:45:44;;;;;;;65.55;10.65;;;;;;;0.07;100.00;97288.63;4971232;28;20053;-56
2020/12/18 01:48:13;;;;;;;36.10;9.15;;;;;;;0.16;100.00;97288.25;4990095;28;20073;-57
2020/12/18 01:50:55;;;;;;;33.80;10.52;;;;;;;0.26;100.00;97296.53;4983461;28;20048;-57
2020/12/18 01:53:27;;;;;;;48.92;10.38;;;;;;;0.21;100.00;97295.88;4999890;28;20050;-58
2020/12/18 01:56:17;;;;;;;51.72;10.55;;;;;;;0.15;100.00;97293.50;4945607;28;20526;-56
2020/12/18 01:58:53;;;;;;;37.53;11.10;;;;;;;0.13;100.00;97296.16;4996618;28;20073;-60
2020/12/18 02:01:37;;;;;;;51.05;10.20;;;;;;;0.15;100.00;97299.53;4962319;28;20057;-57
2020/12/18 02:04:20;;;;;;;28.80;9.55;;;;;;;0.17;100.00;97296.88;5002540;28;20050;-57
2020/12/18 02:06:54;;;;;;;22.17;9.55;;;;;;;0.35;100.00;97298.75;4948817;28;20048;-53
2020/12/18 02:09:37;;;;;;;28.10;9.90;;;;;;;0.37;100.00;97290.91;4989345;28;20042;-55
2020/12/18 02:12:06;;;;;;;28.35;9.23;;;;;;;0.39;100.00;97287.34;4972061;28;20092;-56
2020/12/18 02:14:40;;;;;;;29.95;9.18;;;;;;;0.38;100.00;97289.97;4991739;28;20088;-58
2020/12/18 02:17:08;;;;;;;46.05;10.18;;;;;;;0.18;100.00;97280.44;4975876;28;20069;-53
2020/12/18 02:19:43;;;;;;;24.00;8.43;;;;;;;0.14;100.00;97287.50;5010676;28;20060;-57
2020/12/18 02:22:15;;;;;;;22.38;8.88;;;;;;;0.17;100.00;97281.31;4956577;28;20120;-57
2020/12/18 02:24:58;;;;;;;39.35;8.85;;;;;;;0.18;100.00;97276.09;5001167;28;20054;-58
2020/12/18 02:27:26;;;;;;;24.92;8.20;;;;;;;0.13;100.00;97270.22;4940422;28;20154;-57
2020/12/18 02:29:58;;;;;;;29.60;8.90;;;;;;;0.13;100.00;97267.63;5003835;28;20061;-56
2020/12/18 02:32:26;;;;;;;23.20;7.72;;;;;;;0.06;100.00;97261.00;4951845;28;20042;-61
2020/12/18 02:35:02;;;;;;;28.92;8.80;;;;;;;0.11;100.00;97261.66;4984533;28;20085;-61
2020/12/18 02:37:35;;;;;;;25.65;8.55;;;;;;;0.08;100.00;97266.13;4960977;28;20137;-58
2020/12/18 02:40:04;;;;;;;36.92;9.85;;;;;;;0.03;100.00;97263.69;4984845;28;20060;-57
2020/12/18 02:42:58;;;;;;;37.15;8.82;;;;;;;0.06;100.00;97255.81;4966981;28;21084;-56
2020/12/18 02:45:27;;;;;;;28.77;9.30;;;;;;;0.09;100.00;97260.88;5000800;28;20046;-58
2020/12/18 02:48:11;;;;;;;32.15;11.45;;;;;;;0.14;100.00;97268.50;4966029;28;20706;-61
2020/12/18 02:50:46;;;;;;;20.88;8.18;;;;;;;0.11;100.00;97269.44;4990334;28;20038;-56
2020/12/18 02:53:14;;;;;;;28.65;9.05;;;;;;;0.33;100.00;97273.78;4971429;28;20493;-56
2020/12/18 02:56:00;;;;;;;21.35;8.88;;;;;;;0.38;100.00;97275.28;5007537;28;20042;-55
2020/12/18 02:58:39;;;;;;;24.92;9.10;;;;;;;0.44;100.00;97266.41;4969880;28;20054;-57
2020/12/18 03:01:07;;;;;;;18.15;8.55;;;;;;;0.18;100.00;97257.94;4993637;28;20092;-56
2020/12/18 03:03:34;;;;;;;22.30;8.23;;;;;;;0.21;100.00;97265.59;4973122;28;20045;-58
2020/12/18 03:06:21;;;;;;;16.02;8.13;;;;;;;0.25;100.00;97258.53;5003237;28;20040;-59
2020/12/18 03:08:52;;;;;;;16.05;7.88;;;;;;;0.19;100.00;97248.38;4975209;28;20045;-59
2020/12/18 03:11:19;;;;;;;19.52;8.85;;;;;;;0.08;100.00;97251.41;5003408;28;20045;-56
2020/12/18 03:13:49;;;;;;;15.75;7.88;;;;;;;0.07;100.00;97247.16;4975294;28;20053;-55
2020/12/18 03:16:19;;;;;;;19.67;10.00;;;;;;;0.05;100.00;97243.75;5005569;28;20050;-59
2020/12/18 03:18:54;;;;;;;22.88;10.23;;;;;;;0.05;100.00;97254.13;4967243;28;20058;-55
2020/12/18 03:21:23;;;;;;;23.83;8.90;;;;;;;0.08;100.00;97248.81;4990086;28;20053;-55
2020/12/18 03:24:16;;;;;;;25.17;8.85;;;;;;;0.16;100.00;97261.47;4968615;28;20049;-55
2020/12/18 03:27:09;;;;;;;24.52;9.45;;;;;;;0.20;100.00;97258.69;4992079;28;20062;-54
2020/12/18 03:29:44;;;;;;;25.58;9.80;;;;;;;0.21;100.00;97259.56;4972711;28;20046;-58
2020/12/18 03:32:12;;;;;;;18.08;8.60;;;;;;;0.33;100.00;97266.84;5009817;28;20057;-59
2020/12/18 03:34:46;;;;;;;18.20;8.93;;;;;;;0.35;100.00;97264.19;4956782;28;20042;-58
2020/12/18 03:37:21;;;;;;;18.38;8.70;;;;;;;0.31;100.00;97263.47;4984932;28;20046;-56
2020/12/18 03:39:48;;;;;;;18.33;9.52;;;;;;;0.38;100.00;97272.69;4963197;28;20045;-57
2020/12/18 03:42:38;;;;;;;17.73;8.87;;;;;;;0.47;100.00;97266.28;5004869;28;20053;-56
2020/12/18 03:45:07;;;;;;;18.15;8.52;;;;;;;0.36;100.00;97266.72;4964651;28;20096;-59
2020/12/18 03:47:51;;;;;;;16.05;8.10;;;;;;;0.56;100.00;97275.44;5010176;28;20103;-59
2020/12/18 03:50:23;;;;;;;15.75;8.45;;;;;;;0.52;100.00;97269.53;4957348;28;20065;-60
2020/12/18 03:53:16;;;;;;;17.02;8.93;;;;;;;0.56;100.00;97272.84;5009505;28;20046;-58
2020/12/18 03:55:50;;;;;;;16.10;9.45;;;;;;;0.57;100.00;97266.75;4957654;28;20057;-57
2020/12/18 03:58:43;;;;;;;15.43;8.50;;;;;;;0.49;100.00;97271.41;5003456;28;20042;-54
2020/12/18 04:01:19;;;;;;;19.33;9.25;;;;;;;0.57;100.00;97275.38;4971521;28;20046;-59
2020/12/18 04:03:46;;;;;;;17.90;8.90;;;;;;;0.59;100.00;97272.72;4989553;28;20077;-59
2020/12/18 04:06:13;;;;;;;18.48;9.27;;;;;;;0.63;100.00;97272.53;4965638;28;20050;-56
2020/12/18 04:08:54;;;;;;;13.40;7.93;;;;;;;0.70;100.00;97281.75;5010343;28;20069;-54
2020/12/18 04:11:32;;;;;;;15.40;8.57;;;;;;;0.84;100.00;97280.31;4965592;28;20052;-51
2020/12/18 04:14:20;;;;;;;16.95;9.13;;;;;;;0.85;100.00;97280.25;5002088;28;20372;-47
2020/12/18 04:16:55;;;;;;;15.02;8.48;;;;;;;0.69;100.00;97272.28;4960282;28;20042;-49
2020/12/18 04:19:22;;;;;;;15.10;8.70;;;;;;;0.76;100.00;97261.59;5002956;28;20328;-48
2020/12/18 04:21:52;;;;;;;17.10;8.75;;;;;;;0.72;100.00;97271.28;4993407;28;20057;-49
2020/12/18 04:24:38;;;;;;;14.13;8.18;;;;;;;0.79;100.00;97285.72;5003443;28;20201;-48
2020/12/18 04:27:06;;;;;;;17.00;8.15;;;;;;;0.81;100.00;97283.88;4973335;28;20057;-47
2020/12/18 04:29:33;;;;;;;13.45;7.60;;;;;;;0.83;100.00;97295.06;5025606;28;20052;-48
2020/12/18 04:32:02;;;;;;;13.02;7.25;;;;;;;0.78;100.00;97276.22;4968616;28;20050;-48
2020/12/18 04:34:30;;;;;;;13.05;7.30;;;;;;;0.62;100.00;97270.84;5026077;28;20112;-47
2020/12/18 04:37:17;;;;;;;16.50;8.65;;;;;;;0.70;100.00;97271.34;4982115;28;20624;-46
2020/12/18 04:40:05;;;;;;;17.85;9.50;;;;;;;0.67;100.00;97270.66;5028131;28;20065;-49
2020/12/18 04:42:42;;;;;;;17.30;9.32;;;;;;;0.70;100.00;97273.13;4981211;28;20045;-50
2020/12/18 04:45:11;;;;;;;18.10;9.32;;;;;;;0.86;100.00;97275.91;5023261;28;20385;-47
2020/12/18 04:47:48;;;;;;;18.20;9.73;;;;;;;0.95;100.00;97289.34;4986007;28;20044;-46
2020/12/18 04:50:16;;;;;;;25.05;10.75;;;;;;;0.89;100.00;97270.56;5007105;28;20531;-49
2020/12/18 04:53:04;;;;;;;26.60;10.20;;;;;;;0.80;100.00;97269.22;4985877;28;20532;-51
2020/12/18 04:55:45;;;;;;;25.38;10.70;;;;;;;0.91;100.00;97284.34;5026258;28;20042;-47
2020/12/18 04:58:22;;;;;;;45.92;13.30;;;;;;;0.92;100.00;97278.25;4966155;28;20050;-52
2020/12/18 05:00:54;;;;;;;35.85;12.10;;;;;;;0.80;100.00;97270.97;5027617;28;20053;-47
2020/12/18 05:03:45;;;;;;;26.30;10.98;;;;;;;0.81;100.00;97278.69;4992480;28;20050;-47
2020/12/18 05:06:15;;;;;;;29.33;11.60;;;;;;;0.80;100.00;97276.19;5023524;28;20042;-49
2020/12/18 05:08:43;;;;;;;22.38;11.27;;;;;;;0.77;100.00;97278.91;4993294;28;20136;-47
2020/12/18 05:11:18;;;;;;;21.95;10.55;;;;;;;0.73;100.00;97283.38;5006482;28;20507;-46
2020/12/18 05:13:51;;;;;;;19.98;9.40;;;;;;;0.63;100.00;97271.69;4994997;28;20057;-47
2020/12/18 05:16:19;;;;;;;14.90;8.43;;;;;;;0.81;100.00;97278.69;5022991;28;20048;-51
2020/12/18 05:19:07;;;;;;;16.42;8.90;;;;;;;0.87;100.00;97293.19;4981402;28;20041;-52
2020/12/18 05:21:54;;;;;;;17.58;8.85;;;;;;;0.96;100.00;97297.97;5011534;28;20457;-51
2020/12/18 05:24:53;;;;;;;13.32;7.95;;;;;;;0.91;100.00;97298.16;4931086;28;20742;-52
2020/12/18 05:27:23;;;;;;;16.13;8.45;;;;;;;0.87;100.00;97290.59;5009109;28;20519;-49
2020/12/18 05:29:52;;;;;;;12.82;7.95;;;;;;;0.85;100.00;97288.03;4978141;28;20540;-50
2020/12/18 05:32:42;;;;;;;15.65;8.20;;;;;;;0.77;100.00;97282.34;5026542;28;20438;-54
2020/12/18 05:35:21;;;;;;;15.13;7.78;;;;;;;0.79;100.00;97284.84;4996021;28;20048;-53
2020/12/18 05:37:59;;;;;;;13.05;7.80;;;;;;;0.68;100.00;97280.94;5003745;28;20111;-47
2020/12/18 05:40:46;;;;;;;14.43;8.07;;;;;;;0.77;100.00;97277.13;4985335;28;20052;-52
2020/12/18 05:43:34;;;;;;;13.63;8.07;;;;;;;0.63;100.00;97277.72;5016856;28;20037;-48
2020/12/18 05:46:22;;;;;;;13.38;7.30;;;;;;;0.62;100.00;97275.16;4980781;28;20496;-47
2020/12/18 05:48:59;;;;;;;13.40;7.72;;;;;;;0.61;100.00;97270.91;5026256;28;20056;-47
2020/12/18 05:51:32;;;;;;;13.45;7.32;;;;;;;0.52;100.00;97279.91;4990313;28;20064;-47
2020/12/18 05:54:31;;;;;;;14.68;8.20;;;;;;;0.51;100.00;97287.75;4990414;28;20111;-47
2020/12/18 05:57:09;;;;;;;13.85;7.93;;;;;;;0.49;100.00;97290.41;5028813;28;20119;-47
2020/12/18 05:59:41;;;;;;;13.70;7.57;;;;;;;0.42;100.00;97286.38;4992280;28;20041;-49
2020/12/18 06:02:13;;;;;;;15.20;7.65;;;;;;;0.39;100.00;97286.50;5006693;28;20045;-48
2020/12/18 06:05:01;;;;;;;13.18;6.78;;;;;;;0.32;100.00;97292.84;4974900;28;23794;-46
2020/12/18 06:07:59;;;;;;;13.00;7.55;;;;;;;0.29;100.00;97295.56;5004374;28;20183;-49
2020/12/18 06:10:33;;;;;;;13.90;7.65;;;;;;;0.24;100.00;97287.94;4975804;28;20415;-48
2020/12/18 06:13:25;;;;;;;14.90;7.70;;;;;;;0.18;100.00;97296.00;5019321;28;20069;-50
2020/12/18 06:16:09;;;;;;;16.00;8.70;;;;;;;0.12;100.00;97296.22;4989655;28;20044;-48
2020/12/18 06:18:44;;;;;;;12.18;6.97;;;;;;;0.12;100.00;97296.22;5026194;28;20065;-51
2020/12/18 06:21:20;;;;;;;13.85;7.25;;;;;;;0.06;100.00;97299.88;4991228;28;20049;-48
2020/12/18 06:23:54;;;;;;;14.07;7.53;;;;;;;0.03;100.00;97296.56;5009677;28;20122;-49
2020/12/18 06:26:33;;;;;;;134.60;74.40;;;;;;;0.13;100.00;97297.91;4991616;28;20045;-47
2020/12/18 06:29:39;;;;;;;22.40;10.20;;;;;;;0.10;100.00;97296.25;4961193;28;20046;-49
2020/12/18 06:32:45;;;;;;;14.82;7.07;;;;;;;0.11;100.00;97300.56;4892760;28;20050;-53
2020/12/18 06:35:33;;;;;;;16.00;8.38;;;;;;;0.13;100.00;97308.28;5009168;28;20045;-50
2020/12/18 06:38:25;;;;;;;21.38;8.75;;;;;;;0.12;100.00;97306.59;5011161;28;20026;-49
2020/12/18 06:41:26;;;;;;;19.13;8.48;;;;;;;0.11;100.00;97297.13;4998291;28;20049;-47
2020/12/18 06:44:35;;;;;;;19.30;8.52;;;;;;;0.13;100.00;97311.72;5011151;28;20073;-51
2020/12/18 06:47:30;;;;;;;54.15;8.90;;;;;;;0.13;100.00;97308.28;4985353;28;20043;-47
2020/12/18 06:50:16;;;;;;;35.17;8.65;;;;;;;0.19;100.00;97315.81;5006230;28;20041;-52
2020/12/18 06:53:04;;;;;;;25.38;6.38;;;;;;;0.22;100.00;97319.16;4990799;28;20045;-50
2020/12/18 06:55:41;;;;;;;42.35;8.88;;;;;;;0.23;100.00;97313.03;5020132;28;20050;-46
2020/12/18 06:58:44;;;;;;;45.22;9.15;;;;;;;0.28;100.00;97318.06;4923886;28;20038;-46
2020/12/18 07:01:11;;;;;;;110.22;9.77;;;;;;;0.23;100.00;97318.22;5012158;28;20041;-48
2020/12/18 07:03:53;;;;;;;34.50;7.57;;;;;;;0.26;100.00;97327.66;4975413;28;20140;-48
2020/12/18 07:06:22;;;;;;;43.15;7.82;;;;;;;0.28;100.00;97330.19;5025471;28;20543;-52
2020/12/18 07:08:49;;;;;;;37.63;7.65;;;;;;;0.39;100.00;97326.25;4991330;28;20141;-49
2020/12/18 07:11:18;;;;;;;73.40;9.43;;;;;;;0.43;100.00;97327.00;5022071;28;20045;-48
2020/12/18 07:13:52;;;;;;;91.88;9.05;;;;;;;0.33;100.00;97325.66;4973270;28;20137;-48
2020/12/18 07:16:20;;;;;;;73.10;8.70;;;;;;;0.32;100.00;97326.56;5021289;28;20033;-52
2020/12/18 07:18:48;;;;;;;58.15;8.73;;;;;;;0.37;100.00;97324.63;4986438;28;20041;-52
2020/12/18 07:21:16;;;;;;;81.45;9.48;;;;;;;0.16;100.00;97318.53;5019587;28;20073;-49
2020/12/18 07:23:45;;;;;;;75.95;8.98;;;;;;;0.19;100.00;97310.63;4986322;28;20030;-50
2020/12/18 07:26:14;;;;;;;81.88;9.85;;;;;;;0.29;100.00;97311.97;5025964;28;20361;-53
2020/12/18 07:28:43;;;;;;;79.32;9.75;;;;;;;0.24;100.00;97316.47;4985661;28;20617;-47
2020/12/18 07:31:17;;;;;;;66.45;17.63;;;;;;;0.11;100.00;97310.09;5008973;28;20041;-51
2020/12/18 07:33:44;;;;;;;94.35;14.90;;;;;;;0.20;100.00;97315.75;4988361;28;20480;-52
2020/12/18 07:36:12;;;;;;;90.13;15.38;;;;;;;0.17;100.00;97315.91;5018975;28;20037;-51
2020/12/18 07:38:40;;;;;;;60.85;10.40;;;;;;;0.00;100.00;97307.94;4991902;28;23577;-53
2020/12/18 07:41:09;;;;;;;53.80;9.32;;;;;;;0.04;100.00;97306.06;5020854;28;20058;-50
2020/12/18 07:43:37;;;;;;;40.70;9.77;;;;;;;0.05;100.00;97303.41;4990537;28;20087;-54
2020/12/18 07:46:05;;;;;;;41.65;11.10;;;;;;;0.13;100.00;97297.91;5018337;28;20046;-49
2020/12/18 07:48:34;;;;;;;37.55;12.05;;;;;;;-0.12;100.00;97301.44;5026706;28;20068;-54
2020/12/18 07:51:06;;;;;;;22.08;9.70;;;;;;;-0.13;100.00;97302.38;4980194;28;20234;-51
2020/12/18 07:53:37;;;;;;;29.02;9.45;;;;;;;-0.03;100.00;97297.66;5024408;28;20040;-51
2020/12/18 07:56:08;;;;;;;22.75;10.02;;;;;;;0.16;100.00;97297.78;4995051;28;20038;-53
2020/12/18 07:58:45;;;;;;;30.92;11.23;;;;;;;0.27;100.00;97299.97;5002010;28;20049;-47
2020/12/18 08:01:13;;;;;;;24.20;10.32;;;;;;;0.29;100.00;97311.13;4990569;28;20057;-50
2020/12/18 08:03:48;;;;;;;19.67;9.02;;;;;;;0.49;100.00;97315.53;5021739;28;20045;-48
2020/12/18 08:06:17;;;;;;;29.40;10.50;;;;;;;0.59;100.00;97312.50;4991942;28;20046;-48
2020/12/18 08:08:52;;;;;;;30.08;10.00;;;;;;;0.59;100.00;97320.28;5021599;28;20416;-49
2020/12/18 08:11:21;;;;;;;27.65;9.48;;;;;;;0.65;100.00;97311.38;4976580;28;20049;-46
2020/12/18 08:13:48;;;;;;;22.77;7.82;;;;;;;0.84;100.00;97312.31;5024575;28;20041;-50
2020/12/18 08:16:17;;;;;;;19.05;7.32;;;;;;;0.94;100.00;97308.44;4986017;28;20456;-49
2020/12/18 08:18:51;;;;;;;19.40;7.60;;;;;;;1.07;100.00;97319.16;5017439;28;20045;-48
2020/12/18 08:21:23;;;;;;;21.40;6.82;;;;;;;1.15;100.00;97309.28;4986047;28;20049;-47
2020/12/18 08:23:54;;;;;;;26.13;7.70;;;;;;;1.19;100.00;97307.38;5022492;28;20046;-49
2020/12/18 08:26:23;;;;;;;24.65;7.13;;;;;;;1.23;100.00;97308.94;4985720;28;20046;-51
2020/12/18 08:28:52;;;;;;;53.83;12.05;;;;;;;1.29;100.00;97302.63;5021273;28;20122;-49
2020/12/18 08:31:27;;;;;;;46.47;9.98;;;;;;;1.24;100.00;97305.44;4990696;28;20526;-54
2020/12/18 08:33:55;;;;;;;48.33;11.45;;;;;;;1.33;100.00;97301.59;5021537;28;20080;-55
2020/12/18 08:36:25;;;;;;;62.40;13.75;;;;;;;1.22;100.00;97296.03;4975191;28;20069;-52
2020/12/18 08:38:59;;;;;;;83.28;15.23;;;;;;;1.24;100.00;97296.78;5020946;28;20042;-52
2020/12/18 08:41:26;;;;;;;89.65;14.73;;;;;;;1.44;100.00;97283.75;4980654;28;20049;-52
2020/12/18 08:44:06;;;;;;;74.60;14.65;;;;;;;1.57;100.00;97287.50;5023113;28;20132;-55
2020/12/18 08:46:34;;;;;;;102.15;15.45;;;;;;;1.54;100.00;97297.19;4996520;28;20056;-56
2020/12/18 08:49:13;;;;;;;183.95;18.80;;;;;;;1.53;100.00;97293.75;4998156;28;20050;-52
2020/12/18 08:51:43;;;;;;;61.65;11.15;;;;;;;1.62;100.00;97295.94;4984351;28;20049;-55
2020/12/18 08:54:29;;;;;;;95.10;13.18;;;;;;;1.66;100.00;97300.09;5023488;28;20117;-53
2020/12/18 08:57:18;;;;;;;56.80;10.85;;;;;;;1.82;100.00;97297.63;4983541;28;20450;-54
2020/12/18 09:00:05;;;;;;;44.35;8.27;;;;;;;1.65;100.00;97307.94;5024786;28;20041;-56
2020/12/18 09:02:35;;;;;;;55.78;9.30;;;;;;;1.64;100.00;97307.09;4976072;28;20594;-54
2020/12/18 09:05:17;;;;;;;66.57;7.97;;;;;;;1.67;100.00;97303.53;5010333;28;20046;-56
2020/12/18 09:07:50;;;;;;;43.08;9.02;;;;;;;1.90;100.00;97305.94;4994161;28;20037;-53
2020/12/18 09:10:40;;;;;;;45.80;9.40;;;;;;;1.92;100.00;97307.63;5027403;28;20046;-56
2020/12/18 09:13:10;;;;;;;24.08;8.05;;;;;;;2.00;100.00;97303.75;4960945;28;20495;-57
2020/12/18 09:15:39;;;;;;;17.42;8.75;;;;;;;2.04;100.00;97305.28;5019955;28;20066;-55
2020/12/18 09:18:07;;;;;;;16.17;8.68;;;;;;;2.23;100.00;97305.25;5006373;28;20052;-53
2020/12/18 09:20:37;;;;;;;14.68;7.97;;;;;;;2.29;100.00;97310.19;5028967;28;20096;-56
2020/12/18 09:23:08;;;;;;;14.90;8.23;;;;;;;2.31;100.00;97312.72;4973532;28;20042;-53
2020/12/18 09:25:40;;;;;;;16.35;8.98;;;;;;;2.23;100.00;97302.66;5008868;28;20419;-55
2020/12/18 09:28:13;;;;;;;19.17;10.02;;;;;;;2.32;100.00;97297.03;4981623;28;20049;-54
2020/12/18 09:30:40;;;;;;;27.88;11.10;;;;;;;2.55;100.00;97297.69;5023258;28;20038;-47
2020/12/18 09:33:12;;;;;;;25.23;12.15;;;;;;;2.43;100.00;97296.50;4988335;28;20049;-56
2020/12/18 09:35:43;;;;;;;24.23;10.25;;;;;;;2.44;100.00;97292.13;5022700;28;20500;-56
2020/12/18 09:38:13;;;;;;;20.55;10.82;;;;;;;2.64;100.00;97297.22;5003106;28;20057;-50
2020/12/18 09:40:43;;;;;;;22.67;11.57;;;;;;;2.48;100.00;97299.75;5021574;28;20117;-51
2020/12/18 09:43:12;;;;;;;23.45;10.57;;;;;;;2.73;100.00;97291.56;5016460;28;20042;-53
2020/12/18 09:45:46;;;;;;;22.45;11.32;;;;;;;2.96;100.00;97286.97;5013467;28;20045;-51
2020/12/18 09:48:14;;;;;;;22.17;11.30;;;;;;;3.21;100.00;97287.41;5011265;28;20400;-51
2020/12/18 09:50:43;;;;;;;25.23;12.10;;;;;;;3.38;100.00;97283.94;4987097;28;20313;-57
2020/12/18 09:53:11;;;;;;;53.15;13.98;;;;;;;3.11;100.00;97286.19;5027548;28;20037;-56
2020/12/18 09:55:38;;;;;;;28.88;11.13;;;;;;;3.50;100.00;97282.44;4985316;28;20049;-56
2020/12/18 09:58:06;;;;;;;26.65;11.82;;;;;;;3.06;100.00;97289.06;5027825;28;20142;-54
2020/12/18 10:00:32;;;;;;;43.05;14.30;;;;;;;3.24;100.00;97283.81;4987780;28;20041;-53
2020/12/18 10:03:00;;;;;;;33.40;12.30;;;;;;;3.01;100.00;97279.78;5015371;28;20038;-53
2020/12/18 10:05:27;;;;;;;33.53;13.55;;;;;;;2.88;100.00;97271.72;4992458;28;20050;-57
2020/12/18 10:07:55;;;;;;;26.88;10.93;;;;;;;2.53;100.00;97281.28;5025000;28;20034;-50
2020/12/18 10:10:22;;;;;;;26.40;11.27;;;;;;;2.56;100.00;97278.53;4985361;28;20049;-53
2020/12/18 10:12:50;;;;;;;34.50;11.90;;;;;;;2.44;100.00;97279.97;5023718;28;20107;-57
2020/12/18 10:15:17;;;;;;;25.70;10.20;;;;;;;2.44;100.00;97279.13;4986824;28;20049;-56
2020/12/18 10:17:44;;;;;;;27.85;10.45;;;;;;;2.53;100.00;97274.31;5022920;28;20045;-54
2020/12/18 10:20:11;;;;;;;42.08;10.93;;;;;;;2.49;100.00;97284.97;4983128;28;20049;-56
2020/12/18 10:22:38;;;;;;;45.08;10.05;;;;;;;2.67;100.00;97275.41;5008412;28;20128;-50
2020/12/18 10:25:07;;;;;;;94.13;11.60;;;;;;;3.00;100.00;97275.50;4992310;28;20053;-53
2020/12/18 10:27:36;;;;;;;31.87;10.13;;;;;;;2.60;100.00;97277.47;4993661;28;20090;-57
2020/12/18 10:30:05;;;;;;;64.13;14.68;;;;;;;2.49;100.00;97267.59;4949849;28;20300;-55
2020/12/18 10:32:32;;;;;;;28.20;10.07;;;;;;;2.52;100.00;97266.59;5029026;28;20149;-57
2020/12/18 10:35:00;;;;;;;60.38;11.57;;;;;;;2.51;100.00;97257.09;5021232;28;20044;-53
2020/12/18 10:37:27;;;;;;;35.45;9.85;;;;;;;2.57;100.00;97260.22;4979725;28;20498;-53
2020/12/18 10:39:55;;;;;;;53.13;13.00;;;;;;;2.54;100.00;97256.94;5015370;28;20073;-53
2020/12/18 10:42:23;;;;;;;100.80;13.80;;;;;;;2.47;100.00;97251.19;4967963;28;20047;-57
2020/12/18 10:44:50;;;;;;;110.47;11.50;;;;;;;2.84;100.00;97251.97;5025790;28;20047;-52
2020/12/18 10:47:17;;;;;;;40.20;10.50;;;;;;;3.26;100.00;97242.84;4979326;28;20042;-56
2020/12/18 10:49:44;;;;;;;96.22;14.02;;;;;;;3.43;100.00;97250.63;5022701;28;20046;-57
2020/12/18 10:52:12;;;;;;;24.23;9.95;;;;;;;3.40;100.00;97245.56;4989750;28;20040;-55
2020/12/18 10:54:39;;;;;;;22.00;9.73;;;;;;;3.49;100.00;97249.47;5024028;28;20057;-57
2020/12/18 10:57:09;;;;;;;17.60;9.23;;;;;;;3.89;100.00;97242.97;4986592;28;20140;-55
2020/12/18 10:59:37;;;;;;;22.98;9.50;;;;;;;3.69;100.00;97238.81;5018724;28;20045;-56
2020/12/18 11:02:04;;;;;;;18.65;9.02;;;;;;;3.45;100.00;97243.59;4984645;28;20076;-55
2020/12/18 11:04:32;;;;;;;24.67;9.45;;;;;;;3.55;100.00;97244.78;5004147;28;20069;-57
2020/12/18 11:06:59;;;;;;;18.02;7.82;;;;;;;3.39;100.00;97245.66;4979762;28;20052;-54
2020/12/18 11:09:26;;;;;;;108.68;30.77;;;;;;;3.44;100.00;97241.91;5019387;28;20591;-53
2020/12/18 11:11:54;;;;;;;51.78;20.67;;;;;;;4.13;100.00;97240.75;4990682;28;22163;-54
2020/12/18 11:14:22;;;;;;;41.05;10.82;;;;;;;3.98;100.00;97244.19;5018932;28;20136;-50
2020/12/18 11:16:52;;;;;;;96.85;39.20;;;;;;;3.93;100.00;97241.03;4980998;28;20048;-53
2020/12/18 11:19:25;;;;;;;19.30;8.05;;;;;;;3.78;100.00;97240.06;5023936;28;20049;-54
2020/12/18 11:21:56;;;;;;;22.75;8.77;;;;;;;4.31;100.00;97233.66;5002198;28;20037;-51
2020/12/18 11:24:23;;;;;;;18.75;9.98;;;;;;;4.18;100.00;97233.50;5009981;28;20088;-54
2020/12/18 11:26:51;;;;;;;28.92;10.23;;;;;;;4.17;100.00;97229.22;5025268;28;20802;-53
2020/12/18 11:29:19;;;;;;;31.90;11.57;;;;;;;4.16;100.00;97227.50;4980172;28;20123;-54
2020/12/18 11:31:47;;;;;;;24.13;11.30;;;;;;;3.61;100.00;97219.28;5024917;28;20041;-56
2020/12/18 11:34:19;;;;;;;26.65;11.02;;;;;;;3.42;100.00;97225.50;4981424;28;20103;-55
2020/12/18 11:36:47;;;;;;;24.27;10.25;;;;;;;3.55;100.00;97217.88;5018917;28;20112;-55
2020/12/18 11:39:13;;;;;;;21.83;11.00;;;;;;;4.01;100.00;97212.72;4986202;28;20107;-56
2020/12/18 11:41:41;;;;;;;30.60;13.55;;;;;;;4.15;100.00;97207.56;5024256;28;20041;-53
2020/12/18 11:44:08;;;;;;;21.63;12.00;;;;;;;4.36;100.00;97208.09;4988738;28;20409;-53
2020/12/18 11:46:35;;;;;;;20.60;11.38;;;;;;;5.17;100.00;97198.09;5022716;28;20045;-51
2020/12/18 11:49:02;;;;;;;18.45;10.63;;;;;;;4.87;99.14;97199.94;4989673;28;20052;-55
2020/12/18 11:51:32;;;;;;;18.52;10.40;;;;;;;4.92;98.90;97196.13;5021519;28;20080;-56